JBU1334 TJSJ-KMCO
Flight info
| Callsign | JBU1334 |
|---|---|
| Flight time | 2h 45m |
| Altitude | 36000 |
| Route | ACONY3 SAPPO Y280 OCTAL MUNGI1 |
| Aircraft | A320/M-SDE3GHIJ3J4J7M3P2RWZ/LB1D1 |
Departure
| Time | 2026-05-05 14:54 |
|---|---|
| Airport | Luis Munoz Marin International Airport (TJSJ) |
Arrival
| Time | 2026-05-05 17:39 |
|---|---|
| Airport | Orlando International Airport (KMCO) |
| Time | Latitude | Longitude | Altitude | Speed | Heading |
|---|---|---|---|---|---|
| 2026-05-05 14:30 | 18.43553 | -66.00653 | -26 ft | 0 kts | 360° |
| 2026-05-05 14:45 | 18.43534 | -66.00653 | -33 ft | 4 kts | 0° |
| 2026-05-05 14:45 | 18.43507 | -66.00653 | -33 ft | 4 kts | 354° |
| 2026-05-05 14:46 | 18.43482 | -66.00646 | -42 ft | 4 kts | 324° |
| 2026-05-05 14:46 | 18.43468 | -66.00627 | -39 ft | 3 kts | 271° |
| 2026-05-05 14:46 | 18.43468 | -66.00619 | -44 ft | 0 kts | 269° |
| 2026-05-05 14:50 | 18.43467 | -66.00651 | -44 ft | 11 kts | 269° |
| 2026-05-05 14:50 | 18.43467 | -66.00742 | -28 ft | 13 kts | 270° |
| 2026-05-05 14:50 | 18.43467 | -66.00845 | -28 ft | 15 kts | 270° |
| 2026-05-05 14:50 | 18.43466 | -66.00960 | -29 ft | 17 kts | 269° |
| 2026-05-05 14:51 | 18.43466 | -66.01092 | -30 ft | 18 kts | 271° |
| 2026-05-05 14:51 | 18.43466 | -66.01227 | -31 ft | 17 kts | 269° |
| 2026-05-05 14:51 | 18.43466 | -66.01350 | -31 ft | 14 kts | 271° |
| 2026-05-05 14:51 | 18.43503 | -66.01433 | -33 ft | 14 kts | 342° |
| 2026-05-05 14:52 | 18.43612 | -66.01435 | -39 ft | 20 kts | 0° |
| 2026-05-05 14:52 | 18.43746 | -66.01435 | -44 ft | 12 kts | 1° |
| 2026-05-05 14:52 | 18.43809 | -66.01444 | -39 ft | 9 kts | 341° |
| 2026-05-05 14:52 | 18.43877 | -66.01461 | -51 ft | 11 kts | 12° |
| 2026-05-05 14:53 | 18.43921 | -66.01380 | -46 ft | 25 kts | 67° |
| 2026-05-05 14:53 | 18.44082 | -66.00981 | -54 ft | 91 kts | 67° |
| 2026-05-05 14:53 | 18.44397 | -66.00198 | -53 ft | 140 kts | 67° |
| 2026-05-05 14:53 | 18.44827 | -65.99139 | 126 ft | 168 kts | 65° |
| 2026-05-05 14:54 | 18.45627 | -65.98214 | 642 ft | 184 kts | 26° |
| 2026-05-05 14:54 | 18.46916 | -65.98193 | 1154 ft | 195 kts | 337° |
| 2026-05-05 14:54 | 18.47966 | -65.99145 | 1475 ft | 211 kts | 304° |
| 2026-05-05 14:54 | 18.48798 | -66.00499 | 1733 ft | 230 kts | 309° |
| 2026-05-05 14:55 | 18.49923 | -66.01787 | 2060 ft | 248 kts | 315° |
| 2026-05-05 14:55 | 18.51207 | -66.03142 | 2500 ft | 268 kts | 316° |
| 2026-05-05 14:55 | 18.52567 | -66.04554 | 2964 ft | 287 kts | 315° |
| 2026-05-05 14:55 | 18.54001 | -66.06038 | 3916 ft | 285 kts | 315° |
| 2026-05-05 14:56 | 18.55415 | -66.07504 | 4801 ft | 287 kts | 315° |
| 2026-05-05 14:56 | 18.56837 | -66.09007 | 5612 ft | 291 kts | 315° |
| 2026-05-05 14:56 | 18.58253 | -66.10539 | 6438 ft | 294 kts | 314° |
| 2026-05-05 14:56 | 18.59680 | -66.12091 | 7205 ft | 296 kts | 314° |
| 2026-05-05 14:57 | 18.61126 | -66.13653 | 7950 ft | 299 kts | 314° |
| 2026-05-05 14:57 | 18.62588 | -66.15231 | 8708 ft | 303 kts | 314° |
| 2026-05-05 14:57 | 18.64060 | -66.16817 | 9504 ft | 303 kts | 313° |
| 2026-05-05 14:57 | 18.65537 | -66.18405 | 10231 ft | 306 kts | 313° |
| 2026-05-05 14:58 | 18.67083 | -66.20071 | 10405 ft | 329 kts | 313° |
| 2026-05-05 14:58 | 18.68729 | -66.21845 | 10642 ft | 345 kts | 313° |
| 2026-05-05 14:58 | 18.70430 | -66.23674 | 11133 ft | 352 kts | 313° |
| 2026-05-05 14:58 | 18.72149 | -66.25526 | 11725 ft | 355 kts | 314° |
| 2026-05-05 14:59 | 18.73884 | -66.27395 | 12294 ft | 358 kts | 313° |
| 2026-05-05 14:59 | 18.75630 | -66.29275 | 12907 ft | 360 kts | 314° |
| 2026-05-05 14:59 | 18.77385 | -66.31166 | 13490 ft | 362 kts | 314° |
| 2026-05-05 14:59 | 18.79157 | -66.33072 | 14038 ft | 365 kts | 314° |
| 2026-05-05 15:00 | 18.80334 | -66.34340 | 14382 ft | 366 kts | 313° |
| 2026-05-05 15:00 | 18.82117 | -66.36263 | 14936 ft | 366 kts | 313° |
| 2026-05-05 15:00 | 18.83894 | -66.38184 | 15526 ft | 366 kts | 313° |
| 2026-05-05 15:00 | 18.85680 | -66.40115 | 16098 ft | 367 kts | 313° |
| 2026-05-05 15:01 | 18.87465 | -66.42043 | 16651 ft | 368 kts | 313° |
| 2026-05-05 15:01 | 18.89286 | -66.44008 | 17177 ft | 371 kts | 313° |
| 2026-05-05 15:01 | 18.91088 | -66.45956 | 17759 ft | 371 kts | 313° |
| 2026-05-05 15:01 | 18.92895 | -66.47907 | 18316 ft | 372 kts | 313° |
| 2026-05-05 15:02 | 18.94734 | -66.49842 | 18795 ft | 374 kts | 314° |
| 2026-05-05 15:02 | 18.96616 | -66.51756 | 19224 ft | 377 kts | 315° |
| 2026-05-05 15:02 | 18.98529 | -66.53673 | 19642 ft | 380 kts | 315° |
| 2026-05-05 15:02 | 19.00457 | -66.55601 | 20063 ft | 383 kts | 315° |
| 2026-05-05 15:03 | 19.02398 | -66.57550 | 20474 ft | 386 kts | 315° |
| 2026-05-05 15:03 | 19.04352 | -66.59520 | 20863 ft | 390 kts | 315° |
| 2026-05-05 15:03 | 19.06321 | -66.61511 | 21250 ft | 393 kts | 315° |
| 2026-05-05 15:03 | 19.08239 | -66.63577 | 21644 ft | 395 kts | 309° |
| 2026-05-05 15:04 | 19.09987 | -66.65827 | 22039 ft | 397 kts | 308° |
| 2026-05-05 15:04 | 19.11745 | -66.68095 | 22424 ft | 400 kts | 308° |
| 2026-05-05 15:04 | 19.13519 | -66.70376 | 22807 ft | 403 kts | 308° |
| 2026-05-05 15:04 | 19.15304 | -66.72669 | 23166 ft | 406 kts | 308° |
| 2026-05-05 15:05 | 19.18922 | -66.77309 | 23861 ft | 411 kts | 308° |
| 2026-05-05 15:05 | 19.20746 | -66.79650 | 24179 ft | 413 kts | 308° |
| 2026-05-05 15:05 | 19.22576 | -66.82000 | 24509 ft | 414 kts | 308° |
| 2026-05-05 15:06 | 19.24411 | -66.84359 | 24806 ft | 417 kts | 308° |
| 2026-05-05 15:06 | 19.26258 | -66.86733 | 25122 ft | 418 kts | 308° |
| 2026-05-05 15:06 | 19.28107 | -66.89114 | 25427 ft | 420 kts | 308° |
| 2026-05-05 15:06 | 19.29969 | -66.91516 | 25740 ft | 422 kts | 308° |
| 2026-05-05 15:07 | 19.31836 | -66.93926 | 26059 ft | 424 kts | 308° |
| 2026-05-05 15:07 | 19.33711 | -66.96345 | 26377 ft | 426 kts | 308° |
| 2026-05-05 15:07 | 19.35592 | -66.98775 | 26690 ft | 427 kts | 308° |
| 2026-05-05 15:07 | 19.37479 | -67.01213 | 26988 ft | 429 kts | 308° |
| 2026-05-05 15:08 | 19.39374 | -67.03659 | 27297 ft | 431 kts | 307° |
| 2026-05-05 15:08 | 19.41278 | -67.06120 | 27597 ft | 432 kts | 307° |
| 2026-05-05 15:08 | 19.43187 | -67.08591 | 27902 ft | 434 kts | 307° |
| 2026-05-05 15:08 | 19.45103 | -67.11069 | 28213 ft | 436 kts | 307° |
| 2026-05-05 15:09 | 19.47031 | -67.13558 | 28529 ft | 437 kts | 307° |
| 2026-05-05 15:09 | 19.48967 | -67.16058 | 28854 ft | 439 kts | 307° |
| 2026-05-05 15:09 | 19.50903 | -67.18562 | 29167 ft | 441 kts | 307° |
| 2026-05-05 15:09 | 19.52852 | -67.21086 | 29468 ft | 443 kts | 307° |
| 2026-05-05 15:10 | 19.54809 | -67.23621 | 29815 ft | 444 kts | 307° |
| 2026-05-05 15:10 | 19.56767 | -67.26161 | 30129 ft | 446 kts | 307° |
| 2026-05-05 15:10 | 19.58733 | -67.28712 | 30417 ft | 447 kts | 307° |
| 2026-05-05 15:10 | 19.60698 | -67.31258 | 30811 ft | 445 kts | 307° |
| 2026-05-05 15:11 | 19.62659 | -67.33795 | 31224 ft | 443 kts | 306° |
| 2026-05-05 15:11 | 19.64606 | -67.36316 | 31659 ft | 441 kts | 306° |
| 2026-05-05 15:11 | 19.66538 | -67.38823 | 32088 ft | 438 kts | 306° |
| 2026-05-05 15:11 | 19.68467 | -67.41328 | 32521 ft | 436 kts | 306° |
| 2026-05-05 15:12 | 19.70381 | -67.43815 | 32953 ft | 434 kts | 306° |
| 2026-05-05 15:12 | 19.72289 | -67.46295 | 33388 ft | 432 kts | 306° |
| 2026-05-05 15:12 | 19.74187 | -67.48762 | 33817 ft | 430 kts | 306° |
| 2026-05-05 15:12 | 19.76074 | -67.51215 | 34230 ft | 428 kts | 306° |
| 2026-05-05 15:13 | 19.77956 | -67.53662 | 34585 ft | 427 kts | 306° |
| 2026-05-05 15:13 | 19.79827 | -67.56099 | 34926 ft | 425 kts | 305° |
| 2026-05-05 15:13 | 19.81693 | -67.58534 | 35246 ft | 424 kts | 305° |
| 2026-05-05 15:13 | 19.83549 | -67.60962 | 35576 ft | 423 kts | 305° |
| 2026-05-05 15:14 | 19.85403 | -67.63384 | 35901 ft | 421 kts | 305° |
| 2026-05-05 15:14 | 19.87256 | -67.65804 | 36078 ft | 421 kts | 305° |
| 2026-05-05 15:14 | 19.89114 | -67.68234 | 36123 ft | 426 kts | 305° |
| 2026-05-05 15:15 | 19.92871 | -67.73137 | 36116 ft | 429 kts | 305° |
| 2026-05-05 15:15 | 19.96646 | -67.78060 | 36117 ft | 430 kts | 305° |
| 2026-05-05 15:16 | 20.00422 | -67.82997 | 36113 ft | 430 kts | 305° |
| 2026-05-05 15:16 | 20.04191 | -67.87925 | 36115 ft | 430 kts | 305° |
| 2026-05-05 15:17 | 20.07959 | -67.92860 | 36113 ft | 430 kts | 305° |
| 2026-05-05 15:17 | 20.11724 | -67.97811 | 36116 ft | 430 kts | 305° |
| 2026-05-05 15:18 | 20.15495 | -68.02750 | 36115 ft | 430 kts | 305° |
| 2026-05-05 15:18 | 20.19268 | -68.07696 | 36117 ft | 430 kts | 305° |
| 2026-05-05 15:19 | 20.23028 | -68.12649 | 36118 ft | 430 kts | 305° |
| 2026-05-05 15:19 | 20.26792 | -68.17610 | 36123 ft | 430 kts | 305° |
| 2026-05-05 15:20 | 20.30580 | -68.22603 | 36128 ft | 430 kts | 305° |
| 2026-05-05 15:20 | 20.34344 | -68.27563 | 36128 ft | 430 kts | 305° |
| 2026-05-05 15:21 | 20.38115 | -68.32530 | 36132 ft | 430 kts | 305° |
| 2026-05-05 15:21 | 20.41854 | -68.37462 | 36134 ft | 430 kts | 304° |
| 2026-05-05 15:22 | 20.45339 | -68.42657 | 36121 ft | 426 kts | 298° |
| 2026-05-05 15:22 | 20.48488 | -68.48017 | 36124 ft | 427 kts | 298° |
| 2026-05-05 15:23 | 20.51642 | -68.53375 | 36135 ft | 427 kts | 298° |
| 2026-05-05 15:23 | 20.54799 | -68.58735 | 36131 ft | 426 kts | 298° |
| 2026-05-05 15:24 | 20.57950 | -68.64097 | 36126 ft | 426 kts | 298° |
| 2026-05-05 15:24 | 20.61103 | -68.69463 | 36126 ft | 426 kts | 298° |
| 2026-05-05 15:25 | 20.64246 | -68.74827 | 36120 ft | 426 kts | 298° |
| 2026-05-05 15:25 | 20.67383 | -68.80201 | 36117 ft | 426 kts | 298° |
| 2026-05-05 15:26 | 20.70520 | -68.85573 | 36121 ft | 426 kts | 298° |
| 2026-05-05 15:26 | 20.73669 | -68.90937 | 36131 ft | 426 kts | 298° |
| 2026-05-05 15:27 | 20.76812 | -68.96300 | 36127 ft | 426 kts | 298° |
| 2026-05-05 15:27 | 20.79946 | -69.01672 | 36138 ft | 426 kts | 298° |
| 2026-05-05 15:28 | 20.83075 | -69.07039 | 36136 ft | 425 kts | 298° |
| 2026-05-05 15:28 | 20.86191 | -69.12409 | 36130 ft | 425 kts | 298° |
| 2026-05-05 15:29 | 20.89308 | -69.17782 | 36126 ft | 425 kts | 298° |
| 2026-05-05 15:29 | 20.92431 | -69.23145 | 36132 ft | 425 kts | 298° |
| 2026-05-05 15:30 | 20.95549 | -69.28507 | 36125 ft | 424 kts | 298° |
| 2026-05-05 15:30 | 20.98661 | -69.33871 | 36123 ft | 424 kts | 298° |
| 2026-05-05 15:31 | 21.01768 | -69.39235 | 36125 ft | 424 kts | 297° |
| 2026-05-05 15:31 | 21.04870 | -69.44597 | 36122 ft | 424 kts | 298° |
| 2026-05-05 15:32 | 21.07977 | -69.49966 | 36116 ft | 424 kts | 298° |
| 2026-05-05 15:32 | 21.11101 | -69.55369 | 36126 ft | 424 kts | 298° |
| 2026-05-05 15:33 | 21.14182 | -69.60699 | 36122 ft | 423 kts | 298° |
| 2026-05-05 15:33 | 21.16778 | -69.65191 | 36121 ft | 423 kts | 298° |
| 2026-05-05 15:34 | 21.19867 | -69.70555 | 36134 ft | 423 kts | 298° |
| 2026-05-05 15:34 | 21.22959 | -69.75927 | 36134 ft | 423 kts | 298° |
| 2026-05-05 15:35 | 21.26049 | -69.81293 | 36120 ft | 423 kts | 298° |
| 2026-05-05 15:35 | 21.29655 | -69.87579 | 36118 ft | 423 kts | 298° |
| 2026-05-05 15:36 | 21.32219 | -69.92045 | 36114 ft | 424 kts | 298° |
| 2026-05-05 15:36 | 21.35309 | -69.97429 | 36120 ft | 424 kts | 298° |
| 2026-05-05 15:37 | 21.38395 | -70.02817 | 36112 ft | 424 kts | 298° |
| 2026-05-05 15:37 | 21.41480 | -70.08210 | 36116 ft | 424 kts | 298° |
| 2026-05-05 15:38 | 21.44563 | -70.13608 | 36115 ft | 424 kts | 298° |
| 2026-05-05 15:38 | 21.47669 | -70.19046 | 36110 ft | 424 kts | 298° |
| 2026-05-05 15:39 | 21.50756 | -70.24450 | 36118 ft | 424 kts | 298° |
| 2026-05-05 15:39 | 21.53821 | -70.29828 | 36106 ft | 425 kts | 298° |
| 2026-05-05 15:40 | 21.56907 | -70.35241 | 36109 ft | 425 kts | 298° |
| 2026-05-05 15:40 | 21.60003 | -70.40697 | 36115 ft | 426 kts | 299° |
| 2026-05-05 15:41 | 21.63090 | -70.46135 | 36104 ft | 427 kts | 299° |
| 2026-05-05 15:41 | 21.66190 | -70.51586 | 36103 ft | 428 kts | 299° |
| 2026-05-05 15:42 | 21.69293 | -70.57052 | 36105 ft | 428 kts | 299° |
| 2026-05-05 15:42 | 21.72392 | -70.62533 | 36098 ft | 429 kts | 299° |
| 2026-05-05 15:43 | 21.75501 | -70.68014 | 36096 ft | 430 kts | 299° |
| 2026-05-05 15:43 | 21.78611 | -70.73501 | 36096 ft | 430 kts | 299° |
| 2026-05-05 15:44 | 21.81712 | -70.79002 | 36099 ft | 430 kts | 299° |
| 2026-05-05 15:44 | 21.84818 | -70.84501 | 36100 ft | 430 kts | 299° |
| 2026-05-05 15:45 | 21.87930 | -70.90016 | 36106 ft | 430 kts | 299° |
| 2026-05-05 15:45 | 21.91035 | -70.95529 | 36105 ft | 431 kts | 299° |
| 2026-05-05 15:46 | 21.94138 | -71.01046 | 36108 ft | 431 kts | 299° |
| 2026-05-05 15:46 | 21.97239 | -71.06568 | 36107 ft | 430 kts | 299° |
| 2026-05-05 15:47 | 22.00334 | -71.12085 | 36122 ft | 430 kts | 299° |
| 2026-05-05 15:47 | 22.03426 | -71.17587 | 36117 ft | 429 kts | 299° |
| 2026-05-05 15:48 | 22.06506 | -71.23083 | 36116 ft | 428 kts | 299° |
| 2026-05-05 15:48 | 22.09580 | -71.28574 | 36114 ft | 428 kts | 299° |
| 2026-05-05 15:49 | 22.12651 | -71.34068 | 36109 ft | 427 kts | 299° |
| 2026-05-05 15:49 | 22.15720 | -71.39564 | 36109 ft | 427 kts | 299° |
| 2026-05-05 15:50 | 22.18788 | -71.45058 | 36106 ft | 427 kts | 299° |
| 2026-05-05 15:50 | 22.21871 | -71.50592 | 36106 ft | 428 kts | 299° |
| 2026-05-05 15:51 | 22.24939 | -71.56093 | 36119 ft | 428 kts | 299° |
| 2026-05-05 15:51 | 22.28005 | -71.61593 | 36119 ft | 427 kts | 298° |
| 2026-05-05 15:52 | 22.31048 | -71.67085 | 36122 ft | 426 kts | 298° |
| 2026-05-05 15:52 | 22.34100 | -71.72572 | 36120 ft | 426 kts | 299° |
| 2026-05-05 15:53 | 22.37143 | -71.78053 | 36117 ft | 425 kts | 298° |
| 2026-05-05 15:53 | 22.40180 | -71.83539 | 36131 ft | 424 kts | 298° |
| 2026-05-05 15:54 | 22.43206 | -71.89007 | 36121 ft | 423 kts | 298° |
| 2026-05-05 15:54 | 22.46219 | -71.94464 | 36131 ft | 422 kts | 298° |
| 2026-05-05 15:55 | 22.49232 | -71.99908 | 36124 ft | 421 kts | 298° |
| 2026-05-05 15:55 | 22.52232 | -72.05344 | 36120 ft | 420 kts | 298° |
| 2026-05-05 15:56 | 22.55226 | -72.10773 | 36119 ft | 420 kts | 298° |
| 2026-05-05 15:56 | 22.58214 | -72.16209 | 36117 ft | 419 kts | 298° |
| 2026-05-05 15:57 | 22.61188 | -72.21633 | 36114 ft | 419 kts | 298° |
| 2026-05-05 15:57 | 22.64165 | -72.27061 | 36113 ft | 419 kts | 298° |
| 2026-05-05 15:58 | 22.67142 | -72.32477 | 36111 ft | 419 kts | 298° |
| 2026-05-05 15:58 | 22.70119 | -72.37893 | 36108 ft | 418 kts | 298° |
| 2026-05-05 15:59 | 22.73090 | -72.43314 | 36106 ft | 418 kts | 298° |
| 2026-05-05 15:59 | 22.76055 | -72.48739 | 36105 ft | 418 kts | 298° |
| 2026-05-05 16:00 | 22.79020 | -72.54163 | 36114 ft | 419 kts | 297° |
| 2026-05-05 16:00 | 22.81985 | -72.59596 | 36109 ft | 419 kts | 297° |
| 2026-05-05 16:01 | 22.84951 | -72.65036 | 36104 ft | 420 kts | 298° |
| 2026-05-05 16:01 | 22.87916 | -72.70493 | 36100 ft | 420 kts | 298° |
| 2026-05-05 16:02 | 22.90887 | -72.75955 | 36101 ft | 421 kts | 298° |
| 2026-05-05 16:02 | 22.93868 | -72.81427 | 36103 ft | 421 kts | 298° |
| 2026-05-05 16:03 | 22.96838 | -72.86898 | 36104 ft | 421 kts | 298° |
| 2026-05-05 16:03 | 22.99811 | -72.92373 | 36103 ft | 421 kts | 298° |
| 2026-05-05 16:04 | 23.02776 | -72.97843 | 36103 ft | 421 kts | 298° |
| 2026-05-05 16:04 | 23.05743 | -73.03318 | 36104 ft | 421 kts | 298° |
| 2026-05-05 16:05 | 23.08704 | -73.08806 | 36102 ft | 421 kts | 298° |
| 2026-05-05 16:05 | 23.11667 | -73.14301 | 36104 ft | 421 kts | 298° |
| 2026-05-05 16:06 | 23.14640 | -73.19797 | 36106 ft | 422 kts | 298° |
| 2026-05-05 16:06 | 23.17132 | -73.24401 | 36116 ft | 422 kts | 298° |
| 2026-05-05 16:07 | 23.20092 | -73.29909 | 36113 ft | 422 kts | 297° |
| 2026-05-05 16:07 | 23.23044 | -73.35417 | 36115 ft | 421 kts | 298° |
| 2026-05-05 16:08 | 23.25999 | -73.40910 | 36108 ft | 421 kts | 298° |
| 2026-05-05 16:08 | 23.28946 | -73.46406 | 36108 ft | 420 kts | 298° |
| 2026-05-05 16:09 | 23.31886 | -73.51909 | 36106 ft | 420 kts | 298° |
| 2026-05-05 16:09 | 23.34827 | -73.57407 | 36107 ft | 420 kts | 298° |
| 2026-05-05 16:10 | 23.37768 | -73.62894 | 36104 ft | 420 kts | 298° |
| 2026-05-05 16:10 | 23.40708 | -73.68386 | 36122 ft | 419 kts | 298° |
| 2026-05-05 16:11 | 23.43635 | -73.73868 | 36116 ft | 418 kts | 298° |
| 2026-05-05 16:12 | 23.49465 | -73.84817 | 36110 ft | 417 kts | 298° |
| 2026-05-05 16:13 | 23.56732 | -73.98491 | 36117 ft | 417 kts | 298° |
| 2026-05-05 16:13 | 23.59634 | -74.03963 | 36121 ft | 416 kts | 298° |
| 2026-05-05 16:14 | 23.65406 | -74.14863 | 36118 ft | 414 kts | 298° |
| 2026-05-05 16:15 | 23.71153 | -74.25746 | 36111 ft | 413 kts | 298° |
| 2026-05-05 16:16 | 23.76898 | -74.36621 | 36114 ft | 413 kts | 298° |
| 2026-05-05 16:17 | 23.81170 | -74.44759 | 36116 ft | 411 kts | 298° |
| 2026-05-05 16:18 | 23.85431 | -74.52868 | 36110 ft | 410 kts | 298° |
| 2026-05-05 16:19 | 23.89680 | -74.60965 | 36110 ft | 409 kts | 298° |
| 2026-05-05 16:19 | 23.93930 | -74.69092 | 36136 ft | 409 kts | 298° |
| 2026-05-05 16:20 | 23.99574 | -74.79880 | 36122 ft | 409 kts | 298° |
| 2026-05-05 16:22 | 24.06612 | -74.93390 | 36100 ft | 409 kts | 298° |
| 2026-05-05 16:23 | 24.12235 | -75.04211 | 36102 ft | 409 kts | 298° |
| 2026-05-05 16:23 | 24.16438 | -75.12324 | 36110 ft | 408 kts | 298° |
| 2026-05-05 16:24 | 24.19238 | -75.17730 | 36106 ft | 408 kts | 298° |
| 2026-05-05 16:25 | 24.23430 | -75.25831 | 36102 ft | 407 kts | 298° |
| 2026-05-05 16:25 | 24.27625 | -75.33930 | 36101 ft | 407 kts | 298° |
| 2026-05-05 16:26 | 24.33192 | -75.44725 | 36110 ft | 406 kts | 298° |
| 2026-05-05 16:27 | 24.35962 | -75.50109 | 36105 ft | 405 kts | 298° |
| 2026-05-05 16:27 | 24.38731 | -75.55488 | 36102 ft | 405 kts | 298° |
| 2026-05-05 16:28 | 24.41495 | -75.60871 | 36104 ft | 404 kts | 298° |
| 2026-05-05 16:28 | 24.44253 | -75.66250 | 36099 ft | 404 kts | 298° |
| 2026-05-05 16:29 | 24.47005 | -75.71631 | 36097 ft | 404 kts | 298° |
| 2026-05-05 16:29 | 24.49759 | -75.77012 | 36097 ft | 404 kts | 298° |
| 2026-05-05 16:30 | 24.52510 | -75.82392 | 36102 ft | 403 kts | 298° |
| 2026-05-05 16:30 | 24.55250 | -75.87759 | 36103 ft | 402 kts | 298° |
| 2026-05-05 16:31 | 24.57984 | -75.93116 | 36094 ft | 402 kts | 298° |
| 2026-05-05 16:31 | 24.60715 | -75.98468 | 36097 ft | 401 kts | 298° |
| 2026-05-05 16:32 | 24.63435 | -76.03820 | 36094 ft | 401 kts | 298° |
| 2026-05-05 16:32 | 24.66151 | -76.09172 | 36087 ft | 401 kts | 298° |
| 2026-05-05 16:33 | 24.68865 | -76.14530 | 36114 ft | 401 kts | 298° |
| 2026-05-05 16:33 | 24.71584 | -76.19883 | 36105 ft | 400 kts | 298° |
| 2026-05-05 16:34 | 24.74286 | -76.25212 | 36093 ft | 399 kts | 298° |
| 2026-05-05 16:34 | 24.76981 | -76.30548 | 36091 ft | 399 kts | 298° |
| 2026-05-05 16:35 | 24.79677 | -76.35875 | 36088 ft | 398 kts | 298° |
| 2026-05-05 16:35 | 24.82367 | -76.41203 | 36087 ft | 398 kts | 298° |
| 2026-05-05 16:36 | 24.85056 | -76.46528 | 36082 ft | 398 kts | 298° |
| 2026-05-05 16:36 | 24.87738 | -76.51857 | 36071 ft | 397 kts | 299° |
| 2026-05-05 16:37 | 24.90419 | -76.57190 | 36077 ft | 397 kts | 299° |
| 2026-05-05 16:37 | 24.93094 | -76.62505 | 36079 ft | 397 kts | 299° |
| 2026-05-05 16:38 | 24.95762 | -76.67822 | 36080 ft | 396 kts | 299° |
| 2026-05-05 16:38 | 24.98427 | -76.73142 | 36079 ft | 396 kts | 299° |
| 2026-05-05 16:39 | 25.01092 | -76.78463 | 36079 ft | 396 kts | 299° |
| 2026-05-05 16:39 | 25.03753 | -76.83778 | 36079 ft | 396 kts | 299° |
| 2026-05-05 16:40 | 25.06415 | -76.89098 | 36096 ft | 396 kts | 299° |
| 2026-05-05 16:40 | 25.08632 | -76.93549 | 36092 ft | 395 kts | 299° |
| 2026-05-05 16:41 | 25.11276 | -76.98845 | 36085 ft | 394 kts | 300° |
| 2026-05-05 16:41 | 25.13918 | -77.04140 | 36082 ft | 393 kts | 299° |
| 2026-05-05 16:42 | 25.16548 | -77.09435 | 36082 ft | 393 kts | 299° |
| 2026-05-05 16:42 | 25.19179 | -77.14731 | 36083 ft | 393 kts | 299° |
| 2026-05-05 16:43 | 25.21806 | -77.20025 | 36083 ft | 393 kts | 299° |
| 2026-05-05 16:43 | 25.24431 | -77.25322 | 36079 ft | 392 kts | 300° |
| 2026-05-05 16:44 | 25.27049 | -77.30600 | 36088 ft | 392 kts | 300° |
| 2026-05-05 16:44 | 25.29549 | -77.35938 | 36088 ft | 392 kts | 292° |
| 2026-05-05 16:45 | 25.31400 | -77.41614 | 36072 ft | 392 kts | 292° |
| 2026-05-05 16:45 | 25.33239 | -77.47290 | 36071 ft | 392 kts | 292° |
| 2026-05-05 16:46 | 25.35079 | -77.52960 | 36067 ft | 392 kts | 292° |
| 2026-05-05 16:46 | 25.36922 | -77.58633 | 36070 ft | 392 kts | 292° |
| 2026-05-05 16:47 | 25.38758 | -77.64304 | 36065 ft | 391 kts | 293° |
| 2026-05-05 16:47 | 25.40589 | -77.69962 | 36072 ft | 390 kts | 292° |
| 2026-05-05 16:48 | 25.42409 | -77.75606 | 36067 ft | 390 kts | 293° |
| 2026-05-05 16:48 | 25.44094 | -77.81318 | 36106 ft | 391 kts | 289° |
| 2026-05-05 16:49 | 25.45508 | -77.87117 | 36071 ft | 390 kts | 288° |
| 2026-05-05 16:49 | 25.46888 | -77.92921 | 36068 ft | 390 kts | 288° |
| 2026-05-05 16:50 | 25.48315 | -77.98711 | 36053 ft | 389 kts | 290° |
| 2026-05-05 16:50 | 25.49765 | -78.04479 | 36066 ft | 388 kts | 290° |
| 2026-05-05 16:51 | 25.51210 | -78.10239 | 36070 ft | 388 kts | 290° |
| 2026-05-05 16:51 | 25.52647 | -78.16001 | 36068 ft | 387 kts | 290° |
| 2026-05-05 16:52 | 25.54075 | -78.21749 | 36066 ft | 387 kts | 290° |
| 2026-05-05 16:52 | 25.55501 | -78.27492 | 36064 ft | 387 kts | 290° |
| 2026-05-05 16:53 | 25.56916 | -78.33241 | 36066 ft | 387 kts | 290° |
| 2026-05-05 16:53 | 25.58336 | -78.38985 | 36064 ft | 387 kts | 290° |
| 2026-05-05 16:54 | 25.59766 | -78.44764 | 36064 ft | 386 kts | 290° |
| 2026-05-05 16:54 | 25.61183 | -78.50511 | 36063 ft | 387 kts | 290° |
| 2026-05-05 16:55 | 25.62590 | -78.56262 | 36065 ft | 387 kts | 290° |
| 2026-05-05 16:55 | 25.63999 | -78.62014 | 36066 ft | 387 kts | 290° |
| 2026-05-05 16:56 | 25.65414 | -78.67766 | 36063 ft | 387 kts | 290° |
| 2026-05-05 16:56 | 25.66820 | -78.73513 | 36059 ft | 385 kts | 291° |
| 2026-05-05 16:57 | 25.68213 | -78.79242 | 36072 ft | 384 kts | 291° |
| 2026-05-05 16:57 | 25.69598 | -78.84951 | 36068 ft | 383 kts | 291° |
| 2026-05-05 16:58 | 25.70985 | -78.90654 | 36068 ft | 383 kts | 291° |
| 2026-05-05 16:58 | 25.72371 | -78.96342 | 36074 ft | 382 kts | 291° |
| 2026-05-05 16:59 | 25.73747 | -79.02036 | 36072 ft | 382 kts | 291° |
| 2026-05-05 16:59 | 25.75124 | -79.07727 | 36055 ft | 382 kts | 291° |
| 2026-05-05 17:00 | 25.76502 | -79.13416 | 36052 ft | 382 kts | 291° |
| 2026-05-05 17:00 | 25.77874 | -79.19115 | 36053 ft | 383 kts | 291° |
| 2026-05-05 17:01 | 25.79246 | -79.24819 | 36051 ft | 383 kts | 291° |
| 2026-05-05 17:01 | 25.80615 | -79.30533 | 36052 ft | 383 kts | 291° |
| 2026-05-05 17:02 | 25.81979 | -79.36254 | 36057 ft | 383 kts | 291° |
| 2026-05-05 17:02 | 25.83341 | -79.41978 | 36060 ft | 384 kts | 291° |
| 2026-05-05 17:03 | 25.84715 | -79.47711 | 36048 ft | 384 kts | 290° |
| 2026-05-05 17:03 | 25.86085 | -79.53456 | 36048 ft | 385 kts | 290° |
| 2026-05-05 17:04 | 25.87450 | -79.59209 | 36049 ft | 386 kts | 290° |
| 2026-05-05 17:04 | 25.88819 | -79.64965 | 36081 ft | 386 kts | 290° |
| 2026-05-05 17:05 | 25.90187 | -79.70729 | 36080 ft | 385 kts | 290° |
| 2026-05-05 17:05 | 25.91550 | -79.76517 | 36084 ft | 385 kts | 290° |
| 2026-05-05 17:06 | 25.93561 | -79.81916 | 36063 ft | 375 kts | 304° |
| 2026-05-05 17:06 | 25.96340 | -79.86831 | 36055 ft | 376 kts | 304° |
| 2026-05-05 17:07 | 25.99113 | -79.91763 | 36059 ft | 376 kts | 304° |
| 2026-05-05 17:07 | 26.01883 | -79.96708 | 35885 ft | 384 kts | 304° |
| 2026-05-05 17:08 | 26.03296 | -79.99231 | 35238 ft | 382 kts | 304° |
| 2026-05-05 17:08 | 26.04686 | -80.01719 | 34572 ft | 377 kts | 304° |
| 2026-05-05 17:08 | 26.06072 | -80.04208 | 33861 ft | 380 kts | 304° |
| 2026-05-05 17:08 | 26.07474 | -80.06729 | 33034 ft | 384 kts | 303° |
| 2026-05-05 17:09 | 26.08884 | -80.09257 | 32296 ft | 386 kts | 303° |
| 2026-05-05 17:09 | 26.10306 | -80.11799 | 31645 ft | 386 kts | 303° |
| 2026-05-05 17:09 | 26.11713 | -80.14324 | 31210 ft | 381 kts | 302° |
| 2026-05-05 17:09 | 26.13105 | -80.16815 | 30718 ft | 378 kts | 304° |
| 2026-05-05 17:10 | 26.14723 | -80.19091 | 30249 ft | 374 kts | 314° |
| 2026-05-05 17:10 | 26.16707 | -80.20946 | 29845 ft | 372 kts | 324° |
| 2026-05-05 17:10 | 26.19006 | -80.22356 | 29751 ft | 386 kts | 331° |
| 2026-05-05 17:10 | 26.21465 | -80.23644 | 29581 ft | 393 kts | 331° |
| 2026-05-05 17:11 | 26.23945 | -80.24940 | 29416 ft | 395 kts | 331° |
| 2026-05-05 17:11 | 26.26428 | -80.26233 | 29198 ft | 393 kts | 331° |
| 2026-05-05 17:11 | 26.28904 | -80.27523 | 29016 ft | 392 kts | 331° |
| 2026-05-05 17:11 | 26.31374 | -80.28812 | 28835 ft | 391 kts | 331° |
| 2026-05-05 17:12 | 26.33834 | -80.30095 | 28661 ft | 390 kts | 331° |
| 2026-05-05 17:12 | 26.36287 | -80.31375 | 28482 ft | 389 kts | 331° |
| 2026-05-05 17:12 | 26.38743 | -80.32653 | 28293 ft | 388 kts | 331° |
| 2026-05-05 17:12 | 26.41184 | -80.33926 | 28112 ft | 387 kts | 331° |
| 2026-05-05 17:13 | 26.43621 | -80.35200 | 27930 ft | 387 kts | 331° |
| 2026-05-05 17:13 | 26.46053 | -80.36472 | 27749 ft | 386 kts | 331° |
| 2026-05-05 17:13 | 26.48480 | -80.37743 | 27565 ft | 385 kts | 331° |
| 2026-05-05 17:13 | 26.50900 | -80.39011 | 27385 ft | 384 kts | 331° |
| 2026-05-05 17:14 | 26.52530 | -80.39866 | 27262 ft | 383 kts | 331° |
| 2026-05-05 17:14 | 26.54944 | -80.41134 | 27110 ft | 382 kts | 331° |
| 2026-05-05 17:14 | 26.57344 | -80.42393 | 26908 ft | 381 kts | 331° |
| 2026-05-05 17:14 | 26.59738 | -80.43644 | 26731 ft | 380 kts | 331° |
| 2026-05-05 17:15 | 26.62131 | -80.44889 | 26552 ft | 379 kts | 332° |
| 2026-05-05 17:15 | 26.64564 | -80.46036 | 26375 ft | 379 kts | 334° |
| 2026-05-05 17:15 | 26.67032 | -80.47080 | 26189 ft | 379 kts | 335° |
| 2026-05-05 17:15 | 26.69520 | -80.48069 | 26012 ft | 379 kts | 336° |
| 2026-05-05 17:16 | 26.72009 | -80.49041 | 25829 ft | 378 kts | 336° |
| 2026-05-05 17:16 | 26.74489 | -80.50016 | 25655 ft | 377 kts | 335° |
| 2026-05-05 17:16 | 26.76957 | -80.51011 | 25480 ft | 376 kts | 335° |
| 2026-05-05 17:16 | 26.79412 | -80.52019 | 25314 ft | 376 kts | 335° |
| 2026-05-05 17:17 | 26.81864 | -80.53034 | 25131 ft | 375 kts | 335° |
| 2026-05-05 17:17 | 26.84306 | -80.54051 | 24953 ft | 374 kts | 335° |
| 2026-05-05 17:17 | 26.86744 | -80.55064 | 24798 ft | 373 kts | 335° |
| 2026-05-05 17:17 | 26.89169 | -80.56073 | 24605 ft | 371 kts | 335° |
| 2026-05-05 17:18 | 26.91588 | -80.57077 | 24436 ft | 370 kts | 335° |
| 2026-05-05 17:18 | 26.94005 | -80.58079 | 24262 ft | 370 kts | 335° |
| 2026-05-05 17:18 | 26.96416 | -80.59079 | 24094 ft | 369 kts | 335° |
| 2026-05-05 17:18 | 26.98823 | -80.60079 | 23906 ft | 368 kts | 335° |
| 2026-05-05 17:19 | 27.01222 | -80.61075 | 23745 ft | 368 kts | 335° |
| 2026-05-05 17:19 | 27.03619 | -80.62070 | 23561 ft | 367 kts | 335° |
| 2026-05-05 17:19 | 27.06009 | -80.63063 | 23379 ft | 366 kts | 335° |
| 2026-05-05 17:19 | 27.08397 | -80.64057 | 23208 ft | 365 kts | 335° |
| 2026-05-05 17:20 | 27.10808 | -80.65061 | 23038 ft | 365 kts | 335° |
| 2026-05-05 17:20 | 27.13186 | -80.66051 | 22860 ft | 364 kts | 335° |
| 2026-05-05 17:20 | 27.15553 | -80.67038 | 22684 ft | 363 kts | 335° |
| 2026-05-05 17:20 | 27.17919 | -80.68030 | 22519 ft | 362 kts | 334° |
| 2026-05-05 17:21 | 27.20273 | -80.69018 | 22330 ft | 361 kts | 335° |
| 2026-05-05 17:21 | 27.22615 | -80.70003 | 22154 ft | 360 kts | 335° |
| 2026-05-05 17:21 | 27.24958 | -80.70989 | 21981 ft | 359 kts | 335° |
| 2026-05-05 17:22 | 27.29626 | -80.72952 | 21630 ft | 358 kts | 335° |
| 2026-05-05 17:22 | 27.31956 | -80.73934 | 21458 ft | 357 kts | 335° |
| 2026-05-05 17:22 | 27.34281 | -80.74910 | 21281 ft | 356 kts | 335° |
| 2026-05-05 17:22 | 27.36605 | -80.75884 | 21107 ft | 356 kts | 335° |
| 2026-05-05 17:23 | 27.38924 | -80.76863 | 20715 ft | 357 kts | 335° |
| 2026-05-05 17:23 | 27.41235 | -80.77856 | 20208 ft | 354 kts | 335° |
| 2026-05-05 17:23 | 27.43558 | -80.78862 | 19719 ft | 351 kts | 335° |
| 2026-05-05 17:23 | 27.45824 | -80.79848 | 19256 ft | 348 kts | 335° |
| 2026-05-05 17:24 | 27.48078 | -80.80832 | 18790 ft | 346 kts | 335° |
| 2026-05-05 17:24 | 27.50315 | -80.81808 | 18321 ft | 344 kts | 335° |
| 2026-05-05 17:24 | 27.52547 | -80.82780 | 17806 ft | 343 kts | 335° |
| 2026-05-05 17:24 | 27.54769 | -80.83743 | 17276 ft | 341 kts | 335° |
| 2026-05-05 17:25 | 27.57008 | -80.84726 | 16807 ft | 340 kts | 334° |
| 2026-05-05 17:25 | 27.58448 | -80.85416 | 16505 ft | 339 kts | 333° |
| 2026-05-05 17:25 | 27.61274 | -80.86880 | 15903 ft | 336 kts | 331° |
| 2026-05-05 17:25 | 27.63383 | -80.88014 | 15453 ft | 335 kts | 331° |
| 2026-05-05 17:26 | 27.65483 | -80.89149 | 15004 ft | 334 kts | 331° |
| 2026-05-05 17:26 | 27.67578 | -80.90273 | 14558 ft | 333 kts | 331° |
| 2026-05-05 17:26 | 27.69701 | -80.91401 | 14096 ft | 332 kts | 331° |
| 2026-05-05 17:26 | 27.71790 | -80.92504 | 13626 ft | 331 kts | 332° |
| 2026-05-05 17:27 | 27.73850 | -80.93584 | 13177 ft | 330 kts | 332° |
| 2026-05-05 17:27 | 27.75928 | -80.94669 | 12725 ft | 329 kts | 332° |
| 2026-05-05 17:27 | 27.78024 | -80.95767 | 12293 ft | 327 kts | 332° |
| 2026-05-05 17:27 | 27.80085 | -80.96851 | 11853 ft | 325 kts | 332° |
| 2026-05-05 17:28 | 27.82130 | -80.97927 | 11410 ft | 324 kts | 332° |
| 2026-05-05 17:28 | 27.84173 | -80.98998 | 11029 ft | 321 kts | 332° |
| 2026-05-05 17:28 | 27.86200 | -81.00062 | 10794 ft | 324 kts | 332° |
| 2026-05-05 17:28 | 27.88246 | -81.01138 | 10559 ft | 324 kts | 332° |
| 2026-05-05 17:29 | 27.90286 | -81.02211 | 10316 ft | 321 kts | 332° |
| 2026-05-05 17:29 | 27.92252 | -81.03242 | 10162 ft | 301 kts | 333° |
| 2026-05-05 17:29 | 27.94122 | -81.04197 | 9841 ft | 289 kts | 335° |
| 2026-05-05 17:29 | 27.95981 | -81.05035 | 9699 ft | 288 kts | 336° |
| 2026-05-05 17:30 | 27.97865 | -81.05827 | 9579 ft | 288 kts | 337° |
| 2026-05-05 17:30 | 27.99764 | -81.06605 | 9118 ft | 294 kts | 338° |
| 2026-05-05 17:30 | 28.01678 | -81.07390 | 8839 ft | 290 kts | 338° |
| 2026-05-05 17:30 | 28.03569 | -81.08175 | 8491 ft | 289 kts | 338° |
| 2026-05-05 17:31 | 28.05444 | -81.08959 | 8094 ft | 286 kts | 338° |
| 2026-05-05 17:31 | 28.07302 | -81.09741 | 7465 ft | 284 kts | 338° |
| 2026-05-05 17:31 | 28.09157 | -81.10524 | 6784 ft | 286 kts | 338° |
| 2026-05-05 17:31 | 28.11009 | -81.11303 | 6315 ft | 279 kts | 339° |
| 2026-05-05 17:32 | 28.12771 | -81.12037 | 6170 ft | 261 kts | 339° |
| 2026-05-05 17:32 | 28.14415 | -81.12718 | 6045 ft | 243 kts | 339° |
| 2026-05-05 17:32 | 28.15895 | -81.13548 | 5906 ft | 234 kts | 319° |
| 2026-05-05 17:32 | 28.16826 | -81.15005 | 5639 ft | 228 kts | 292° |
| 2026-05-05 17:33 | 28.17420 | -81.16670 | 5168 ft | 228 kts | 291° |
| 2026-05-05 17:33 | 28.18002 | -81.18336 | 4711 ft | 228 kts | 291° |
| 2026-05-05 17:33 | 28.18582 | -81.20005 | 4249 ft | 229 kts | 291° |
| 2026-05-05 17:33 | 28.19167 | -81.21683 | 4032 ft | 228 kts | 292° |
| 2026-05-05 17:34 | 28.19739 | -81.23320 | 4004 ft | 219 kts | 292° |
| 2026-05-05 17:34 | 28.20301 | -81.24921 | 4006 ft | 218 kts | 292° |
| 2026-05-05 17:34 | 28.21057 | -81.26402 | 3928 ft | 218 kts | 312° |
| 2026-05-05 17:34 | 28.22218 | -81.27481 | 3789 ft | 216 kts | 333° |
| 2026-05-05 17:35 | 28.23628 | -81.28013 | 3569 ft | 213 kts | 354° |
| 2026-05-05 17:35 | 28.25100 | -81.28066 | 3319 ft | 212 kts | 1° |
| 2026-05-05 17:35 | 28.26581 | -81.28078 | 3046 ft | 213 kts | 0° |
| 2026-05-05 17:35 | 28.28059 | -81.28092 | 2758 ft | 212 kts | 1° |
| 2026-05-05 17:36 | 28.29529 | -81.28107 | 2491 ft | 209 kts | 2° |
| 2026-05-05 17:36 | 28.30949 | -81.28122 | 2220 ft | 200 kts | 1° |
| 2026-05-05 17:36 | 28.32321 | -81.28136 | 1960 ft | 194 kts | 1° |
| 2026-05-05 17:36 | 28.33651 | -81.28149 | 1706 ft | 189 kts | 1° |
| 2026-05-05 17:37 | 28.34899 | -81.28163 | 1487 ft | 172 kts | 2° |
| 2026-05-05 17:37 | 28.35703 | -81.28171 | 1323 ft | 169 kts | 1° |
| 2026-05-05 17:37 | 28.37263 | -81.28186 | 1034 ft | 168 kts | 1° |
| 2026-05-05 17:37 | 28.38410 | -81.28198 | 815 ft | 164 kts | 4° |
| 2026-05-05 17:38 | 28.39495 | -81.28210 | 618 ft | 150 kts | 3° |
| 2026-05-05 17:38 | 28.40521 | -81.28220 | 399 ft | 142 kts | 5° |
| 2026-05-05 17:38 | 28.41517 | -81.28235 | 227 ft | 142 kts | 3° |
| 2026-05-05 17:38 | 28.42481 | -81.28237 | 101 ft | 133 kts | 356° |
| 2026-05-05 17:39 | 28.43219 | -81.28246 | 95 ft | 66 kts | 359° |
| 2026-05-05 17:39 | 28.43470 | -81.28271 | 97 ft | 22 kts | 338° |
| 2026-05-05 17:39 | 28.43512 | -81.28363 | 95 ft | 13 kts | 211° |
| 2026-05-05 17:39 | 28.43409 | -81.28372 | 96 ft | 17 kts | 180° |
| 2026-05-05 17:40 | 28.43281 | -81.28372 | 94 ft | 20 kts | 179° |
| 2026-05-05 17:40 | 28.43134 | -81.28369 | 97 ft | 22 kts | 179° |
| 2026-05-05 17:40 | 28.42972 | -81.28368 | 95 ft | 25 kts | 181° |
| 2026-05-05 17:40 | 28.42792 | -81.28366 | 95 ft | 27 kts | 180° |
| 2026-05-05 17:41 | 28.42612 | -81.28365 | 98 ft | 22 kts | 180° |
| 2026-05-05 17:41 | 28.42517 | -81.28393 | 99 ft | 16 kts | 235° |
| 2026-05-05 17:41 | 28.42465 | -81.28545 | 97 ft | 24 kts | 251° |
| 2026-05-05 17:41 | 28.42402 | -81.28753 | 103 ft | 29 kts | 249° |
| 2026-05-05 17:42 | 28.42391 | -81.28816 | 104 ft | 0 kts | 275° |